sensor_id;sensor_type;location;lat;lon;timestamp;P1;durP1;ratioP1;P2;durP2;ratioP2
757;SDS011;363;48.764;9.172;2024-01-11T00:00:41;34.13;;;20.07;;
757;SDS011;363;48.764;9.172;2024-01-11T00:03:07;32.13;;;20.45;;
757;SDS011;363;48.764;9.172;2024-01-11T00:05:33;31.05;;;20.70;;
757;SDS011;363;48.764;9.172;2024-01-11T00:07:59;31.30;;;20.02;;
757;SDS011;363;48.764;9.172;2024-01-11T00:10:24;29.13;;;18.60;;
757;SDS011;363;48.764;9.172;2024-01-11T00:12:50;32.53;;;21.60;;
757;SDS011;363;48.764;9.172;2024-01-11T00:15:16;30.60;;;20.38;;
757;SDS011;363;48.764;9.172;2024-01-11T00:17:42;33.63;;;19.98;;
757;SDS011;363;48.764;9.172;2024-01-11T00:20:08;33.60;;;20.77;;
757;SDS011;363;48.764;9.172;2024-01-11T00:22:35;31.52;;;19.13;;
757;SDS011;363;48.764;9.172;2024-01-11T00:25:01;32.63;;;20.50;;
757;SDS011;363;48.764;9.172;2024-01-11T00:27:27;27.30;;;18.65;;
757;SDS011;363;48.764;9.172;2024-01-11T00:29:53;29.42;;;20.08;;
757;SDS011;363;48.764;9.172;2024-01-11T00:32:19;34.22;;;21.08;;
757;SDS011;363;48.764;9.172;2024-01-11T00:34:46;35.78;;;20.30;;
757;SDS011;363;48.764;9.172;2024-01-11T00:37:12;27.98;;;18.70;;
757;SDS011;363;48.764;9.172;2024-01-11T00:39:38;29.98;;;18.88;;
757;SDS011;363;48.764;9.172;2024-01-11T00:42:04;31.05;;;19.83;;
757;SDS011;363;48.764;9.172;2024-01-11T00:44:30;30.58;;;19.13;;
757;SDS011;363;48.764;9.172;2024-01-11T00:46:56;35.58;;;20.95;;
757;SDS011;363;48.764;9.172;2024-01-11T00:49:22;34.72;;;19.42;;
757;SDS011;363;48.764;9.172;2024-01-11T00:51:48;31.77;;;20.13;;
757;SDS011;363;48.764;9.172;2024-01-11T00:54:14;28.97;;;19.07;;
757;SDS011;363;48.764;9.172;2024-01-11T00:56:40;27.70;;;19.57;;
757;SDS011;363;48.764;9.172;2024-01-11T00:59:05;30.83;;;19.55;;
757;SDS011;363;48.764;9.172;2024-01-11T01:01:31;29.10;;;19.87;;
757;SDS011;363;48.764;9.172;2024-01-11T01:03:57;34.85;;;21.45;;
757;SDS011;363;48.764;9.172;2024-01-11T01:06:23;28.33;;;19.42;;
757;SDS011;363;48.764;9.172;2024-01-11T01:08:49;29.80;;;18.33;;
757;SDS011;363;48.764;9.172;2024-01-11T01:11:15;32.70;;;19.77;;
757;SDS011;363;48.764;9.172;2024-01-11T01:13:41;33.15;;;21.38;;
757;SDS011;363;48.764;9.172;2024-01-11T01:16:07;32.85;;;19.65;;
757;SDS011;363;48.764;9.172;2024-01-11T01:18:33;32.00;;;18.85;;
757;SDS011;363;48.764;9.172;2024-01-11T01:20:59;35.83;;;20.50;;
757;SDS011;363;48.764;9.172;2024-01-11T01:23:25;28.33;;;19.27;;
757;SDS011;363;48.764;9.172;2024-01-11T01:25:51;25.97;;;19.03;;
757;SDS011;363;48.764;9.172;2024-01-11T01:28:17;36.15;;;20.73;;
757;SDS011;363;48.764;9.172;2024-01-11T01:30:43;29.55;;;19.30;;
757;SDS011;363;48.764;9.172;2024-01-11T01:33:09;29.52;;;18.73;;
757;SDS011;363;48.764;9.172;2024-01-11T01:35:34;40.37;;;20.80;;
757;SDS011;363;48.764;9.172;2024-01-11T01:38:00;33.97;;;21.53;;
757;SDS011;363;48.764;9.172;2024-01-11T01:40:27;30.50;;;18.83;;
757;SDS011;363;48.764;9.172;2024-01-11T01:42:57;29.42;;;18.63;;
757;SDS011;363;48.764;9.172;2024-01-11T01:45:24;33.50;;;20.33;;
757;SDS011;363;48.764;9.172;2024-01-11T01:47:51;34.20;;;21.00;;
757;SDS011;363;48.764;9.172;2024-01-11T01:50:17;29.48;;;18.70;;
757;SDS011;363;48.764;9.172;2024-01-11T01:52:45;39.67;;;21.13;;
757;SDS011;363;48.764;9.172;2024-01-11T01:55:11;34.25;;;22.05;;
757;SDS011;363;48.764;9.172;2024-01-11T01:57:39;35.58;;;20.70;;
757;SDS011;363;48.764;9.172;2024-01-11T02:00:06;31.52;;;20.50;;
757;SDS011;363;48.764;9.172;2024-01-11T02:02:35;34.58;;;22.00;;
757;SDS011;363;48.764;9.172;2024-01-11T02:05:01;31.90;;;21.60;;
757;SDS011;363;48.764;9.172;2024-01-11T02:07:27;29.30;;;19.55;;
757;SDS011;363;48.764;9.172;2024-01-11T02:09:53;33.45;;;20.98;;
757;SDS011;363;48.764;9.172;2024-01-11T02:12:20;28.10;;;18.75;;
757;SDS011;363;48.764;9.172;2024-01-11T02:14:46;33.05;;;19.00;;
757;SDS011;363;48.764;9.172;2024-01-11T02:17:12;34.38;;;22.38;;
757;SDS011;363;48.764;9.172;2024-01-11T02:19:38;32.20;;;20.30;;
757;SDS011;363;48.764;9.172;2024-01-11T02:22:08;31.08;;;19.83;;
757;SDS011;363;48.764;9.172;2024-01-11T02:24:39;33.85;;;19.85;;
757;SDS011;363;48.764;9.172;2024-01-11T02:27:05;32.80;;;21.05;;
757;SDS011;363;48.764;9.172;2024-01-11T02:29:31;31.15;;;19.60;;
757;SDS011;363;48.764;9.172;2024-01-11T02:31:58;30.05;;;20.48;;
757;SDS011;363;48.764;9.172;2024-01-11T02:34:26;33.00;;;21.40;;
757;SDS011;363;48.764;9.172;2024-01-11T02:36:55;30.55;;;19.10;;
757;SDS011;363;48.764;9.172;2024-01-11T02:39:22;33.20;;;20.63;;
757;SDS011;363;48.764;9.172;2024-01-11T02:41:50;31.45;;;20.55;;
757;SDS011;363;48.764;9.172;2024-01-11T02:44:16;33.33;;;21.70;;
757;SDS011;363;48.764;9.172;2024-01-11T02:46:42;30.80;;;19.67;;
757;SDS011;363;48.764;9.172;2024-01-11T02:49:09;27.48;;;18.77;;
757;SDS011;363;48.764;9.172;2024-01-11T02:51:35;34.35;;;21.17;;
757;SDS011;363;48.764;9.172;2024-01-11T02:54:01;29.67;;;18.40;;
757;SDS011;363;48.764;9.172;2024-01-11T02:56:30;30.15;;;20.90;;
757;SDS011;363;48.764;9.172;2024-01-11T02:58:56;30.30;;;19.65;;
757;SDS011;363;48.764;9.172;2024-01-11T03:01:22;28.92;;;19.65;;
757;SDS011;363;48.764;9.172;2024-01-11T03:03:48;35.47;;;20.70;;
757;SDS011;363;48.764;9.172;2024-01-11T03:06:14;29.42;;;18.63;;
757;SDS011;363;48.764;9.172;2024-01-11T03:08:42;32.42;;;20.27;;
757;SDS011;363;48.764;9.172;2024-01-11T03:11:08;33.53;;;20.45;;
757;SDS011;363;48.764;9.172;2024-01-11T03:13:34;29.27;;;18.50;;
757;SDS011;363;48.764;9.172;2024-01-11T03:16:00;28.48;;;19.48;;
757;SDS011;363;48.764;9.172;2024-01-11T03:18:26;33.65;;;19.40;;
757;SDS011;363;48.764;9.172;2024-01-11T03:20:52;30.67;;;20.58;;
757;SDS011;363;48.764;9.172;2024-01-11T03:23:18;28.05;;;18.52;;
757;SDS011;363;48.764;9.172;2024-01-11T03:25:44;34.30;;;19.75;;
757;SDS011;363;48.764;9.172;2024-01-11T03:28:10;31.50;;;21.35;;
757;SDS011;363;48.764;9.172;2024-01-11T03:30:36;33.17;;;20.77;;
757;SDS011;363;48.764;9.172;2024-01-11T03:33:02;33.60;;;20.60;;
757;SDS011;363;48.764;9.172;2024-01-11T03:35:28;34.40;;;19.60;;
757;SDS011;363;48.764;9.172;2024-01-11T03:37:53;32.60;;;19.67;;
757;SDS011;363;48.764;9.172;2024-01-11T03:40:19;31.55;;;19.88;;
757;SDS011;363;48.764;9.172;2024-01-11T03:42:45;35.40;;;22.73;;
757;SDS011;363;48.764;9.172;2024-01-11T03:45:11;31.65;;;21.17;;
757;SDS011;363;48.764;9.172;2024-01-11T03:47:37;31.47;;;21.27;;
757;SDS011;363;48.764;9.172;2024-01-11T03:50:02;31.40;;;18.87;;
757;SDS011;363;48.764;9.172;2024-01-11T03:52:28;33.83;;;20.90;;
757;SDS011;363;48.764;9.172;2024-01-11T03:54:54;32.93;;;21.53;;
757;SDS011;363;48.764;9.172;2024-01-11T03:57:20;32.00;;;20.20;;
757;SDS011;363;48.764;9.172;2024-01-11T03:59:45;35.60;;;21.43;;
757;SDS011;363;48.764;9.172;2024-01-11T04:02:11;32.27;;;21.43;;
757;SDS011;363;48.764;9.172;2024-01-11T04:04:36;34.20;;;20.30;;
757;SDS011;363;48.764;9.172;2024-01-11T04:07:02;30.80;;;19.77;;
757;SDS011;363;48.764;9.172;2024-01-11T04:09:28;30.10;;;19.33;;
757;SDS011;363;48.764;9.172;2024-01-11T04:11:53;33.30;;;21.23;;
757;SDS011;363;48.764;9.172;2024-01-11T04:14:19;31.87;;;19.40;;
757;SDS011;363;48.764;9.172;2024-01-11T04:16:44;34.77;;;21.33;;
757;SDS011;363;48.764;9.172;2024-01-11T04:19:10;35.30;;;20.50;;
757;SDS011;363;48.764;9.172;2024-01-11T04:21:36;37.00;;;23.23;;
757;SDS011;363;48.764;9.172;2024-01-11T04:24:04;35.63;;;21.23;;
757;SDS011;363;48.764;9.172;2024-01-11T04:26:33;31.73;;;19.77;;
757;SDS011;363;48.764;9.172;2024-01-11T04:28:58;27.63;;;18.47;;
757;SDS011;363;48.764;9.172;2024-01-11T04:31:25;32.70;;;21.25;;
757;SDS011;363;48.764;9.172;2024-01-11T04:33:51;29.25;;;19.38;;
757;SDS011;363;48.764;9.172;2024-01-11T04:36:16;32.73;;;22.10;;
757;SDS011;363;48.764;9.172;2024-01-11T04:38:42;30.03;;;18.37;;
757;SDS011;363;48.764;9.172;2024-01-11T04:41:08;29.93;;;19.43;;
757;SDS011;363;48.764;9.172;2024-01-11T04:43:44;36.75;;;20.95;;
757;SDS011;363;48.764;9.172;2024-01-11T04:48:38;30.13;;;18.80;;
757;SDS011;363;48.764;9.172;2024-01-11T04:51:04;33.23;;;19.87;;
757;SDS011;363;48.764;9.172;2024-01-11T04:53:30;33.73;;;20.93;;
757;SDS011;363;48.764;9.172;2024-01-11T04:55:55;32.53;;;19.67;;
757;SDS011;363;48.764;9.172;2024-01-11T04:58:21;38.53;;;21.27;;
757;SDS011;363;48.764;9.172;2024-01-11T05:00:46;43.73;;;20.90;;
757;SDS011;363;48.764;9.172;2024-01-11T05:03:13;34.80;;;20.77;;
757;SDS011;363;48.764;9.172;2024-01-11T05:05:39;32.57;;;21.27;;
757;SDS011;363;48.764;9.172;2024-01-11T05:08:04;30.17;;;22.40;;
757;SDS011;363;48.764;9.172;2024-01-11T05:10:30;35.10;;;20.80;;
757;SDS011;363;48.764;9.172;2024-01-11T05:12:56;35.40;;;20.17;;
757;SDS011;363;48.764;9.172;2024-01-11T05:15:21;37.43;;;20.50;;
757;SDS011;363;48.764;9.172;2024-01-11T05:17:47;34.90;;;21.30;;
757;SDS011;363;48.764;9.172;2024-01-11T05:20:12;33.50;;;20.20;;
757;SDS011;363;48.764;9.172;2024-01-11T05:22:38;34.70;;;21.87;;
757;SDS011;363;48.764;9.172;2024-01-11T05:25:03;43.53;;;22.70;;
757;SDS011;363;48.764;9.172;2024-01-11T05:27:29;34.10;;;22.07;;
757;SDS011;363;48.764;9.172;2024-01-11T05:29:54;31.80;;;19.67;;
757;SDS011;363;48.764;9.172;2024-01-11T05:32:20;30.80;;;21.17;;
757;SDS011;363;48.764;9.172;2024-01-11T05:34:45;31.47;;;19.70;;
757;SDS011;363;48.764;9.172;2024-01-11T05:37:11;38.20;;;24.80;;
757;SDS011;363;48.764;9.172;2024-01-11T05:39:36;35.63;;;22.27;;
757;SDS011;363;48.764;9.172;2024-01-11T05:42:02;29.43;;;20.13;;
757;SDS011;363;48.764;9.172;2024-01-11T05:44:28;32.37;;;19.60;;
757;SDS011;363;48.764;9.172;2024-01-11T05:46:53;34.33;;;21.30;;
757;SDS011;363;48.764;9.172;2024-01-11T05:49:19;31.90;;;20.93;;
757;SDS011;363;48.764;9.172;2024-01-11T05:51:44;39.23;;;21.43;;
757;SDS011;363;48.764;9.172;2024-01-11T05:54:10;39.63;;;24.53;;
757;SDS011;363;48.764;9.172;2024-01-11T05:56:35;35.80;;;22.60;;
757;SDS011;363;48.764;9.172;2024-01-11T05:59:01;32.30;;;19.60;;
757;SDS011;363;48.764;9.172;2024-01-11T06:01:26;31.20;;;20.60;;
757;SDS011;363;48.764;9.172;2024-01-11T06:03:52;33.30;;;20.23;;
757;SDS011;363;48.764;9.172;2024-01-11T06:06:17;37.30;;;22.07;;
757;SDS011;363;48.764;9.172;2024-01-11T06:08:43;35.03;;;20.33;;
757;SDS011;363;48.764;9.172;2024-01-11T06:11:09;35.40;;;21.23;;
757;SDS011;363;48.764;9.172;2024-01-11T06:13:34;33.73;;;20.30;;
757;SDS011;363;48.764;9.172;2024-01-11T06:16:00;33.70;;;19.73;;
757;SDS011;363;48.764;9.172;2024-01-11T06:18:26;34.53;;;21.23;;
757;SDS011;363;48.764;9.172;2024-01-11T06:20:51;39.37;;;21.70;;
757;SDS011;363;48.764;9.172;2024-01-11T06:23:17;33.00;;;21.03;;
757;SDS011;363;48.764;9.172;2024-01-11T06:25:45;34.22;;;21.08;;
757;SDS011;363;48.764;9.172;2024-01-11T06:28:11;31.30;;;19.33;;
757;SDS011;363;48.764;9.172;2024-01-11T06:30:37;30.90;;;18.97;;
757;SDS011;363;48.764;9.172;2024-01-11T06:33:02;33.17;;;20.17;;
757;SDS011;363;48.764;9.172;2024-01-11T06:35:28;34.43;;;21.37;;
757;SDS011;363;48.764;9.172;2024-01-11T06:37:54;37.53;;;20.43;;
757;SDS011;363;48.764;9.172;2024-01-11T06:40:19;35.90;;;21.57;;
757;SDS011;363;48.764;9.172;2024-01-11T06:42:45;31.03;;;20.93;;
757;SDS011;363;48.764;9.172;2024-01-11T06:45:10;33.03;;;21.20;;
757;SDS011;363;48.764;9.172;2024-01-11T06:47:36;32.40;;;21.10;;
757;SDS011;363;48.764;9.172;2024-01-11T06:50:01;33.07;;;19.87;;
757;SDS011;363;48.764;9.172;2024-01-11T06:52:28;36.55;;;22.63;;
757;SDS011;363;48.764;9.172;2024-01-11T06:54:53;37.10;;;23.77;;
757;SDS011;363;48.764;9.172;2024-01-11T06:57:19;33.13;;;20.73;;
757;SDS011;363;48.764;9.172;2024-01-11T06:59:44;27.43;;;18.70;;
757;SDS011;363;48.764;9.172;2024-01-11T07:02:11;36.00;;;22.40;;
757;SDS011;363;48.764;9.172;2024-01-11T07:04:37;36.95;;;21.92;;
757;SDS011;363;48.764;9.172;2024-01-11T07:07:03;33.27;;;20.13;;
757;SDS011;363;48.764;9.172;2024-01-11T07:09:29;33.67;;;22.95;;
757;SDS011;363;48.764;9.172;2024-01-11T07:11:55;33.17;;;21.77;;
757;SDS011;363;48.764;9.172;2024-01-11T07:14:20;32.93;;;19.77;;
757;SDS011;363;48.764;9.172;2024-01-11T07:16:46;36.17;;;21.83;;
757;SDS011;363;48.764;9.172;2024-01-11T07:19:11;35.60;;;22.20;;
757;SDS011;363;48.764;9.172;2024-01-11T07:21:37;38.33;;;24.17;;
757;SDS011;363;48.764;9.172;2024-01-11T07:24:02;34.63;;;20.30;;
757;SDS011;363;48.764;9.172;2024-01-11T07:26:28;37.77;;;22.30;;
757;SDS011;363;48.764;9.172;2024-01-11T07:28:56;38.10;;;23.27;;
757;SDS011;363;48.764;9.172;2024-01-11T07:31:22;33.65;;;22.00;;
757;SDS011;363;48.764;9.172;2024-01-11T07:33:47;34.97;;;23.87;;
757;SDS011;363;48.764;9.172;2024-01-11T07:36:13;38.13;;;22.90;;
757;SDS011;363;48.764;9.172;2024-01-11T07:38:39;38.63;;;23.53;;
757;SDS011;363;48.764;9.172;2024-01-11T07:41:04;31.23;;;20.53;;
757;SDS011;363;48.764;9.172;2024-01-11T07:43:30;35.63;;;22.27;;
757;SDS011;363;48.764;9.172;2024-01-11T07:46:00;38.38;;;24.58;;
757;SDS011;363;48.764;9.172;2024-01-11T07:48:26;39.53;;;25.65;;
757;SDS011;363;48.764;9.172;2024-01-11T07:50:52;33.10;;;22.37;;
757;SDS011;363;48.764;9.172;2024-01-11T07:53:17;34.53;;;22.63;;
757;SDS011;363;48.764;9.172;2024-01-11T07:55:43;40.27;;;21.40;;
757;SDS011;363;48.764;9.172;2024-01-11T07:58:12;37.88;;;21.55;;
757;SDS011;363;48.764;9.172;2024-01-11T08:00:38;35.20;;;24.50;;
757;SDS011;363;48.764;9.172;2024-01-11T08:03:04;37.10;;;24.63;;
757;SDS011;363;48.764;9.172;2024-01-11T08:05:29;33.57;;;21.73;;
757;SDS011;363;48.764;9.172;2024-01-11T08:07:55;40.17;;;24.20;;
757;SDS011;363;48.764;9.172;2024-01-11T08:10:20;37.03;;;23.57;;
757;SDS011;363;48.764;9.172;2024-01-11T08:12:46;41.40;;;26.47;;
757;SDS011;363;48.764;9.172;2024-01-11T08:15:11;34.20;;;22.97;;
757;SDS011;363;48.764;9.172;2024-01-11T08:17:37;36.53;;;23.50;;
757;SDS011;363;48.764;9.172;2024-01-11T08:20:04;37.25;;;22.08;;
757;SDS011;363;48.764;9.172;2024-01-11T08:22:33;38.83;;;23.40;;
757;SDS011;363;48.764;9.172;2024-01-11T08:25:01;38.75;;;24.30;;
757;SDS011;363;48.764;9.172;2024-01-11T08:27:28;39.67;;;24.65;;
757;SDS011;363;48.764;9.172;2024-01-11T08:30:02;36.55;;;23.88;;
757;SDS011;363;48.764;9.172;2024-01-11T08:32:30;40.70;;;25.83;;
757;SDS011;363;48.764;9.172;2024-01-11T08:34:59;38.43;;;24.10;;
757;SDS011;363;48.764;9.172;2024-01-11T08:37:25;38.30;;;23.23;;
757;SDS011;363;48.764;9.172;2024-01-11T08:39:51;40.20;;;24.20;;
757;SDS011;363;48.764;9.172;2024-01-11T08:42:16;35.00;;;23.10;;
757;SDS011;363;48.764;9.172;2024-01-11T08:44:42;39.65;;;26.63;;
757;SDS011;363;48.764;9.172;2024-01-11T08:47:08;41.22;;;26.17;;
757;SDS011;363;48.764;9.172;2024-01-11T08:49:38;37.63;;;25.02;;
757;SDS011;363;48.764;9.172;2024-01-11T08:52:04;39.70;;;25.15;;
757;SDS011;363;48.764;9.172;2024-01-11T08:54:30;39.38;;;25.33;;
757;SDS011;363;48.764;9.172;2024-01-11T08:56:58;43.10;;;26.48;;
757;SDS011;363;48.764;9.172;2024-01-11T08:59:23;35.77;;;24.67;;
757;SDS011;363;48.764;9.172;2024-01-11T09:01:50;39.92;;;24.65;;
757;SDS011;363;48.764;9.172;2024-01-11T09:04:16;37.17;;;25.67;;
757;SDS011;363;48.764;9.172;2024-01-11T09:06:42;40.03;;;27.10;;
757;SDS011;363;48.764;9.172;2024-01-11T09:09:08;43.17;;;25.50;;
757;SDS011;363;48.764;9.172;2024-01-11T09:11:35;42.03;;;25.90;;
757;SDS011;363;48.764;9.172;2024-01-11T09:14:01;40.78;;;26.65;;
757;SDS011;363;48.764;9.172;2024-01-11T09:16:28;40.88;;;27.05;;
757;SDS011;363;48.764;9.172;2024-01-11T09:18:53;44.47;;;27.50;;
757;SDS011;363;48.764;9.172;2024-01-11T09:21:19;41.27;;;26.67;;
757;SDS011;363;48.764;9.172;2024-01-11T09:23:44;41.20;;;25.37;;
757;SDS011;363;48.764;9.172;2024-01-11T09:26:10;36.73;;;23.47;;
757;SDS011;363;48.764;9.172;2024-01-11T09:28:36;39.20;;;26.73;;
757;SDS011;363;48.764;9.172;2024-01-11T09:31:02;38.25;;;25.77;;
757;SDS011;363;48.764;9.172;2024-01-11T09:33:27;32.90;;;22.10;;
757;SDS011;363;48.764;9.172;2024-01-11T09:35:54;34.73;;;24.90;;
757;SDS011;363;48.764;9.172;2024-01-11T09:38:21;39.40;;;24.75;;
757;SDS011;363;48.764;9.172;2024-01-11T09:40:48;34.90;;;23.90;;
757;SDS011;363;48.764;9.172;2024-01-11T09:43:32;36.42;;;25.35;;
757;SDS011;363;48.764;9.172;2024-01-11T09:46:00;30.75;;;23.30;;
757;SDS011;363;48.764;9.172;2024-01-11T09:48:32;34.97;;;24.17;;
757;SDS011;363;48.764;9.172;2024-01-11T09:50:59;32.40;;;22.75;;
757;SDS011;363;48.764;9.172;2024-01-11T09:53:29;29.52;;;22.05;;
757;SDS011;363;48.764;9.172;2024-01-11T09:55:58;33.95;;;23.17;;
757;SDS011;363;48.764;9.172;2024-01-11T09:58:24;33.28;;;23.33;;
757;SDS011;363;48.764;9.172;2024-01-11T10:00:55;36.22;;;23.70;;
757;SDS011;363;48.764;9.172;2024-01-11T10:03:22;32.35;;;23.15;;
757;SDS011;363;48.764;9.172;2024-01-11T10:05:49;35.30;;;26.70;;
757;SDS011;363;48.764;9.172;2024-01-11T10:08:18;32.15;;;23.00;;
757;SDS011;363;48.764;9.172;2024-01-11T10:10:46;34.38;;;23.35;;
757;SDS011;363;48.764;9.172;2024-01-11T10:13:11;35.47;;;24.80;;
757;SDS011;363;48.764;9.172;2024-01-11T10:15:37;35.20;;;25.50;;
757;SDS011;363;48.764;9.172;2024-01-11T10:18:03;33.93;;;25.90;;
757;SDS011;363;48.764;9.172;2024-01-11T10:20:28;35.47;;;26.07;;
757;SDS011;363;48.764;9.172;2024-01-11T10:22:57;33.35;;;24.80;;
757;SDS011;363;48.764;9.172;2024-01-11T10:25:22;34.93;;;26.43;;
757;SDS011;363;48.764;9.172;2024-01-11T10:27:48;39.50;;;26.47;;
757;SDS011;363;48.764;9.172;2024-01-11T10:30:15;33.13;;;24.13;;
757;SDS011;363;48.764;9.172;2024-01-11T10:32:44;35.42;;;24.95;;
757;SDS011;363;48.764;9.172;2024-01-11T10:35:11;35.17;;;25.45;;
757;SDS011;363;48.764;9.172;2024-01-11T10:37:37;36.03;;;25.73;;
757;SDS011;363;48.764;9.172;2024-01-11T10:40:07;34.53;;;26.33;;
757;SDS011;363;48.764;9.172;2024-01-11T10:42:44;34.83;;;24.13;;
757;SDS011;363;48.764;9.172;2024-01-11T10:45:15;35.42;;;24.88;;
757;SDS011;363;48.764;9.172;2024-01-11T10:47:47;29.85;;;24.05;;
757;SDS011;363;48.764;9.172;2024-01-11T10:50:30;33.45;;;25.25;;
757;SDS011;363;48.764;9.172;2024-01-11T10:56:09;41.08;;;27.20;;
757;SDS011;363;48.764;9.172;2024-01-11T10:58:36;34.65;;;25.73;;
757;SDS011;363;48.764;9.172;2024-01-11T11:01:11;33.85;;;25.60;;
757;SDS011;363;48.764;9.172;2024-01-11T11:03:38;44.53;;;26.92;;
757;SDS011;363;48.764;9.172;2024-01-11T11:06:05;35.03;;;25.25;;
757;SDS011;363;48.764;9.172;2024-01-11T11:08:32;39.63;;;27.40;;
757;SDS011;363;48.764;9.172;2024-01-11T11:10:59;35.58;;;25.65;;
757;SDS011;363;48.764;9.172;2024-01-11T11:13:26;35.63;;;27.05;;
757;SDS011;363;48.764;9.172;2024-01-11T11:15:52;33.10;;;24.48;;
757;SDS011;363;48.764;9.172;2024-01-11T11:18:22;35.97;;;25.75;;
757;SDS011;363;48.764;9.172;2024-01-11T11:20:49;35.58;;;24.88;;
757;SDS011;363;48.764;9.172;2024-01-11T11:23:16;32.42;;;24.45;;
757;SDS011;363;48.764;9.172;2024-01-11T11:25:45;38.42;;;26.52;;
757;SDS011;363;48.764;9.172;2024-01-11T11:28:11;36.70;;;26.00;;
757;SDS011;363;48.764;9.172;2024-01-11T11:30:38;33.30;;;25.23;;
757;SDS011;363;48.764;9.172;2024-01-11T11:35:49;33.55;;;25.75;;
757;SDS011;363;48.764;9.172;2024-01-11T11:40:51;37.08;;;26.38;;
757;SDS011;363;48.764;9.172;2024-01-11T11:43:18;35.30;;;26.08;;
757;SDS011;363;48.764;9.172;2024-01-11T11:45:47;37.90;;;27.05;;
757;SDS011;363;48.764;9.172;2024-01-11T11:53:36;36.00;;;26.50;;
757;SDS011;363;48.764;9.172;2024-01-11T11:56:02;38.80;;;25.90;;
757;SDS011;363;48.764;9.172;2024-01-11T11:58:31;36.20;;;26.52;;
757;SDS011;363;48.764;9.172;2024-01-11T12:00:58;39.38;;;27.25;;
757;SDS011;363;48.764;9.172;2024-01-11T12:03:31;38.58;;;29.10;;
757;SDS011;363;48.764;9.172;2024-01-11T12:05:59;47.47;;;29.30;;
757;SDS011;363;48.764;9.172;2024-01-11T12:08:25;38.35;;;26.60;;
757;SDS011;363;48.764;9.172;2024-01-11T12:10:51;37.67;;;26.87;;
757;SDS011;363;48.764;9.172;2024-01-11T12:13:17;37.45;;;27.17;;
757;SDS011;363;48.764;9.172;2024-01-11T12:15:43;34.45;;;26.65;;
757;SDS011;363;48.764;9.172;2024-01-11T12:18:09;40.67;;;28.90;;
757;SDS011;363;48.764;9.172;2024-01-11T12:20:35;38.43;;;27.07;;
757;SDS011;363;48.764;9.172;2024-01-11T12:23:00;42.50;;;29.20;;
757;SDS011;363;48.764;9.172;2024-01-11T12:25:27;38.75;;;25.15;;
757;SDS011;363;48.764;9.172;2024-01-11T12:27:53;38.93;;;26.80;;
757;SDS011;363;48.764;9.172;2024-01-11T12:30:21;39.95;;;28.63;;
757;SDS011;363;48.764;9.172;2024-01-11T12:32:48;36.75;;;26.23;;
757;SDS011;363;48.764;9.172;2024-01-11T12:35:14;35.75;;;25.33;;
757;SDS011;363;48.764;9.172;2024-01-11T12:37:40;35.90;;;26.30;;
757;SDS011;363;48.764;9.172;2024-01-11T12:40:06;34.97;;;25.77;;
757;SDS011;363;48.764;9.172;2024-01-11T12:42:35;35.08;;;25.02;;
757;SDS011;363;48.764;9.172;2024-01-11T12:45:01;38.60;;;26.08;;
757;SDS011;363;48.764;9.172;2024-01-11T12:47:27;35.83;;;25.40;;
757;SDS011;363;48.764;9.172;2024-01-11T12:49:53;37.17;;;25.33;;
757;SDS011;363;48.764;9.172;2024-01-11T12:52:19;39.60;;;25.20;;
757;SDS011;363;48.764;9.172;2024-01-11T12:54:44;37.10;;;24.93;;
757;SDS011;363;48.764;9.172;2024-01-11T12:57:17;37.35;;;26.75;;
757;SDS011;363;48.764;9.172;2024-01-11T12:59:44;37.20;;;25.80;;
757;SDS011;363;48.764;9.172;2024-01-11T13:02:10;35.27;;;24.40;;
757;SDS011;363;48.764;9.172;2024-01-11T13:04:38;35.38;;;24.20;;
757;SDS011;363;48.764;9.172;2024-01-11T13:07:04;34.38;;;23.83;;
757;SDS011;363;48.764;9.172;2024-01-11T13:09:32;34.65;;;24.45;;
757;SDS011;363;48.764;9.172;2024-01-11T13:11:58;34.57;;;24.20;;
757;SDS011;363;48.764;9.172;2024-01-11T13:14:24;34.95;;;25.55;;
757;SDS011;363;48.764;9.172;2024-01-11T13:16:49;37.27;;;25.43;;
757;SDS011;363;48.764;9.172;2024-01-11T13:19:16;37.92;;;25.90;;
757;SDS011;363;48.764;9.172;2024-01-11T13:21:41;33.67;;;24.37;;
757;SDS011;363;48.764;9.172;2024-01-11T13:24:07;37.33;;;25.37;;
757;SDS011;363;48.764;9.172;2024-01-11T13:26:33;34.70;;;23.97;;
757;SDS011;363;48.764;9.172;2024-01-11T13:28:59;52.13;;;32.60;;
757;SDS011;363;48.764;9.172;2024-01-11T13:31:25;40.30;;;27.67;;
757;SDS011;363;48.764;9.172;2024-01-11T13:33:50;35.07;;;24.40;;
757;SDS011;363;48.764;9.172;2024-01-11T13:36:17;33.63;;;24.30;;
757;SDS011;363;48.764;9.172;2024-01-11T13:38:43;35.97;;;25.13;;
757;SDS011;363;48.764;9.172;2024-01-11T13:41:08;33.33;;;24.17;;
757;SDS011;363;48.764;9.172;2024-01-11T13:43:34;39.80;;;24.83;;
757;SDS011;363;48.764;9.172;2024-01-11T13:46:00;31.13;;;24.70;;
757;SDS011;363;48.764;9.172;2024-01-11T13:48:29;39.17;;;26.42;;
757;SDS011;363;48.764;9.172;2024-01-11T13:50:56;39.50;;;26.15;;
757;SDS011;363;48.764;9.172;2024-01-11T13:53:22;34.38;;;25.38;;
757;SDS011;363;48.764;9.172;2024-01-11T13:55:48;38.57;;;26.57;;
757;SDS011;363;48.764;9.172;2024-01-11T13:58:13;36.80;;;27.23;;
757;SDS011;363;48.764;9.172;2024-01-11T14:00:40;34.53;;;25.55;;
757;SDS011;363;48.764;9.172;2024-01-11T14:03:06;34.77;;;25.57;;
757;SDS011;363;48.764;9.172;2024-01-11T14:05:31;34.47;;;26.17;;
757;SDS011;363;48.764;9.172;2024-01-11T14:07:58;38.15;;;27.48;;
757;SDS011;363;48.764;9.172;2024-01-11T14:10:24;41.25;;;26.20;;
757;SDS011;363;48.764;9.172;2024-01-11T14:12:50;35.90;;;25.13;;
757;SDS011;363;48.764;9.172;2024-01-11T14:15:15;34.77;;;24.73;;
757;SDS011;363;48.764;9.172;2024-01-11T14:17:41;35.13;;;24.90;;
757;SDS011;363;48.764;9.172;2024-01-11T14:20:07;36.03;;;24.90;;
757;SDS011;363;48.764;9.172;2024-01-11T14:22:37;38.08;;;24.35;;
757;SDS011;363;48.764;9.172;2024-01-11T14:25:02;36.33;;;25.63;;
757;SDS011;363;48.764;9.172;2024-01-11T14:27:28;34.17;;;24.70;;
757;SDS011;363;48.764;9.172;2024-01-11T14:29:55;36.83;;;24.95;;
757;SDS011;363;48.764;9.172;2024-01-11T14:32:21;37.53;;;27.27;;
757;SDS011;363;48.764;9.172;2024-01-11T14:34:47;34.60;;;25.27;;
757;SDS011;363;48.764;9.172;2024-01-11T14:37:12;40.20;;;27.20;;
757;SDS011;363;48.764;9.172;2024-01-11T14:39:38;37.80;;;25.53;;
757;SDS011;363;48.764;9.172;2024-01-11T14:42:04;38.00;;;25.85;;
757;SDS011;363;48.764;9.172;2024-01-11T14:44:30;37.70;;;26.42;;
757;SDS011;363;48.764;9.172;2024-01-11T14:46:55;39.73;;;28.70;;
757;SDS011;363;48.764;9.172;2024-01-11T14:49:22;44.10;;;28.05;;
757;SDS011;363;48.764;9.172;2024-01-11T14:51:48;42.03;;;28.50;;
757;SDS011;363;48.764;9.172;2024-01-11T14:54:14;40.88;;;27.83;;
757;SDS011;363;48.764;9.172;2024-01-11T14:56:40;47.70;;;28.07;;
757;SDS011;363;48.764;9.172;2024-01-11T14:59:06;42.90;;;28.38;;
757;SDS011;363;48.764;9.172;2024-01-11T15:01:31;40.27;;;28.20;;
757;SDS011;363;48.764;9.172;2024-01-11T15:03:57;42.17;;;27.90;;
757;SDS011;363;48.764;9.172;2024-01-11T15:06:22;44.77;;;29.53;;
757;SDS011;363;48.764;9.172;2024-01-11T15:08:48;44.27;;;29.40;;
757;SDS011;363;48.764;9.172;2024-01-11T15:11:13;39.07;;;28.40;;
757;SDS011;363;48.764;9.172;2024-01-11T15:13:39;38.00;;;27.40;;
757;SDS011;363;48.764;9.172;2024-01-11T15:16:05;40.47;;;28.67;;
757;SDS011;363;48.764;9.172;2024-01-11T15:18:31;40.22;;;29.23;;
757;SDS011;363;48.764;9.172;2024-01-11T15:20:57;41.30;;;29.10;;
757;SDS011;363;48.764;9.172;2024-01-11T15:23:23;35.40;;;26.40;;
757;SDS011;363;48.764;9.172;2024-01-11T15:25:49;42.63;;;26.60;;